Time;durP1;ratioP1;P1;durP2;ratioP2;P2;SDS_P1;SDS_P2;PMS_P1;PMS_P2;Temp;Humidity;BMP_temperature;BMP_pressure;BME280_temperature;BME280_humidity;BME280_pressure;Samples;Min_cycle;Max_cycle;Signal;HPM_P1;HPM_P2
2023/01/10 00:00:44;;;;;;;0.50;0.50;;;7.10;99.90;;;;;;4398381;32;20462;-74
2023/01/10 00:03:11;;;;;;;0.43;0.43;;;7.10;99.90;;;;;;4400433;32;20478;-74
2023/01/10 00:05:38;;;;;;;0.60;0.60;;;7.10;99.90;;;;;;4402226;32;20077;-74
2023/01/10 00:08:04;;;;;;;0.40;0.40;;;7.10;99.90;;;;;;4399731;32;20212;-74
2023/01/10 00:10:31;;;;;;;0.40;0.40;;;7.10;99.90;;;;;;4393444;32;20169;-74
2023/01/10 00:13:28;;;;;;;0.30;0.30;;;7.10;99.90;;;;;;4383812;32;20170;-74
2023/01/10 00:15:42;;;;;;;0.40;0.40;;;7.20;99.90;;;;;;4374748;32;20105;-74
2023/01/10 00:18:08;;;;;;;0.30;0.30;;;7.20;99.90;;;;;;4395095;32;20189;-74
2023/01/10 00:20:33;;;;;;;0.30;0.30;;;7.20;99.90;;;;;;4400234;32;20066;-75
2023/01/10 00:22:59;;;;;;;0.30;0.30;;;7.10;99.90;;;;;;4390545;32;20489;-74
2023/01/10 00:25:25;;;;;;;0.52;0.43;;;7.10;99.90;;;;;;4395064;32;20132;-74
2023/01/10 00:28:03;;;;;;;2.25;1.48;;;7.20;99.90;;;;;;4399628;32;20065;-75
2023/01/10 00:30:29;;;;;;;0.30;0.30;;;7.10;99.90;;;;;;4399715;32;20170;-74
2023/01/10 00:32:55;;;;;;;0.37;0.37;;;7.10;99.90;;;;;;4396336;32;20082;-74
2023/01/10 00:35:21;;;;;;;0.35;0.35;;;7.10;99.90;;;;;;4396202;32;20545;-76
2023/01/10 00:37:47;;;;;;;0.30;0.30;;;7.00;99.90;;;;;;4401480;32;20116;-74
2023/01/10 00:40:12;;;;;;;0.80;0.50;;;7.10;99.90;;;;;;4395698;32;20093;-74
2023/01/10 00:44:09;;;;;;;2.25;0.62;;;7.10;99.90;;;;;;4386807;32;20124;-74
2023/01/10 00:45:25;;;;;;;0.30;0.30;;;7.10;99.90;;;;;;4375525;32;20631;-74
2023/01/10 00:47:51;;;;;;;0.30;0.30;;;7.00;99.90;;;;;;4397784;32;20078;-74
2023/01/10 00:50:17;;;;;;;0.30;0.30;;;7.10;99.90;;;;;;4399099;32;20070;-74
2023/01/10 00:52:42;;;;;;;0.30;0.30;;;7.10;99.90;;;;;;4391973;32;20137;-74
2023/01/10 00:55:08;;;;;;;0.55;0.55;;;7.10;99.90;;;;;;4396258;32;20117;-74
2023/01/10 00:57:34;;;;;;;0.32;0.32;;;7.10;99.90;;;;;;4401882;32;20121;-74
2023/01/10 00:59:59;;;;;;;0.55;0.40;;;7.20;99.90;;;;;;4400857;32;20094;-74
2023/01/10 01:02:25;;;;;;;0.93;0.93;;;7.10;99.90;;;;;;4399557;32;21282;-74
2023/01/10 01:04:50;;;;;;;0.30;0.30;;;7.10;99.90;;;;;;4401212;32;20074;-74
2023/01/10 01:07:16;;;;;;;0.75;0.50;;;7.10;99.90;;;;;;4400070;32;20079;-73
2023/01/10 01:10:41;;;;;;;0.30;0.30;;;7.10;99.90;;;;;;4396816;32;20090;-73
2023/01/10 01:12:27;;;;;;;0.30;0.30;;;7.20;99.90;;;;;;4374536;32;20129;-73
2023/01/10 01:14:52;;;;;;;0.30;0.30;;;7.20;99.90;;;;;;4383884;32;20437;-73
2023/01/10 01:17:18;;;;;;;0.30;0.30;;;7.10;99.90;;;;;;4392372;32;20082;-73
2023/01/10 01:19:43;;;;;;;0.47;0.47;;;7.10;99.90;;;;;;4398918;32;20073;-74
2023/01/10 01:22:09;;;;;;;0.43;0.43;;;7.10;99.90;;;;;;4397211;32;20066;-73
2023/01/10 01:24:35;;;;;;;0.40;0.40;;;7.00;99.90;;;;;;4390696;32;20090;-76
2023/01/10 01:27:00;;;;;;;0.30;0.30;;;7.00;99.90;;;;;;4400514;32;20498;-74
2023/01/10 01:29:26;;;;;;;0.40;0.40;;;7.00;99.90;;;;;;4399696;32;20099;-73
2023/01/10 01:31:51;;;;;;;0.40;0.40;;;7.00;99.90;;;;;;4398354;32;20061;-74
2023/01/10 01:34:16;;;;;;;1.10;0.98;;;6.90;99.90;;;;;;4399498;32;20463;-73
2023/01/10 01:36:42;;;;;;;1.65;0.90;;;6.90;99.90;;;;;;4398386;32;20098;-76
2023/01/10 01:39:07;;;;;;;0.30;0.30;;;6.90;99.90;;;;;;4400299;32;20213;-75
2023/01/10 01:42:04;;;;;;;4.15;1.23;;;6.80;99.90;;;;;;4389899;32;21112;-74
2023/01/10 01:44:19;;;;;;;0.40;0.40;;;6.80;99.90;;;;;;4376648;32;20609;-74
2023/01/10 01:46:51;;;;;;;0.40;0.40;;;6.80;99.90;;;;;;4391596;32;20428;-74
2023/01/10 01:49:20;;;;;;;11.18;1.20;;;6.80;99.90;;;;;;4400240;32;20444;-75
2023/01/10 01:51:49;;;;;;;0.88;0.50;;;6.80;99.90;;;;;;4399550;32;20062;-75
2023/01/10 01:54:17;;;;;;;0.30;0.30;;;6.80;99.90;;;;;;4387924;32;20070;-73
2023/01/10 01:56:50;;;;;;;0.47;0.47;;;6.80;99.90;;;;;;4403186;32;20070;-74
2023/01/10 01:59:24;;;;;;;0.30;0.30;;;6.80;99.90;;;;;;4402266;32;20109;-73
2023/01/10 02:01:54;;;;;;;0.40;0.40;;;6.90;99.90;;;;;;4401029;32;20073;-74
2023/01/10 02:04:25;;;;;;;1.20;0.73;;;6.80;99.90;;;;;;4401332;32;20491;-74
2023/01/10 02:06:53;;;;;;;1.02;0.85;;;6.80;99.90;;;;;;4401473;32;20561;-74
2023/01/10 02:09:25;;;;;;;0.50;0.50;;;6.80;99.90;;;;;;4400279;32;20086;-73
2023/01/10 02:11:51;;;;;;;0.30;0.30;;;6.80;99.90;;;;;;4388446;32;20058;-73
2023/01/10 02:14:17;;;;;;;0.30;0.30;;;6.80;99.90;;;;;;4385504;32;20098;-73
2023/01/10 02:16:43;;;;;;;2.17;1.30;;;6.80;99.90;;;;;;4391275;32;20292;-73
2023/01/10 02:19:28;;;;;;;0.30;0.30;;;6.80;99.90;;;;;;4401272;32;20395;-74
2023/01/10 02:22:19;;;;;;;0.30;0.30;;;6.70;99.90;;;;;;4394322;32;20128;-73
2023/01/10 02:25:14;;;;;;;0.40;0.40;;;6.70;99.90;;;;;;4384395;32;20106;-73
2023/01/10 02:27:52;;;;;;;0.32;0.32;;;6.70;99.90;;;;;;4393767;32;20481;-73
2023/01/10 02:30:47;;;;;;;0.40;0.40;;;6.70;99.90;;;;;;4401100;32;20093;-74
2023/01/10 02:33:23;;;;;;;0.52;0.52;;;6.70;99.90;;;;;;4396870;32;20078;-74
2023/01/10 02:36:17;;;;;;;0.30;0.30;;;6.70;99.90;;;;;;4400978;32;20066;-75
2023/01/10 02:39:03;;;;;;;3.40;0.60;;;6.70;99.90;;;;;;4392397;32;20444;-75
2023/01/10 02:41:37;;;;;;;3.33;0.62;;;6.70;99.90;;;;;;4379317;32;20070;-73
2023/01/10 02:44:08;;;;;;;3.90;0.65;;;6.70;99.90;;;;;;4381774;32;20140;-74
2023/01/10 02:46:36;;;;;;;0.28;0.28;;;6.80;99.90;;;;;;4387978;32;20065;-74
2023/01/10 02:49:02;;;;;;;0.32;0.32;;;6.80;99.90;;;;;;4400262;32;20160;-75
2023/01/10 02:51:29;;;;;;;0.40;0.40;;;6.80;99.90;;;;;;4401262;32;20272;-74
2023/01/10 02:54:06;;;;;;;2.00;0.95;;;6.80;99.90;;;;;;4387863;32;20062;-74
2023/01/10 02:56:47;;;;;;;0.40;0.40;;;6.80;99.90;;;;;;4402954;32;20065;-75
2023/01/10 02:59:34;;;;;;;0.40;0.40;;;6.80;99.90;;;;;;4402742;32;20098;-75
2023/01/10 03:02:40;;;;;;;0.40;0.40;;;6.80;99.90;;;;;;4400141;32;20574;-75
2023/01/10 03:05:17;;;;;;;0.40;0.40;;;6.90;99.90;;;;;;4386632;32;20522;-75
2023/01/10 03:07:53;;;;;;;0.73;0.73;;;6.90;99.90;;;;;;4399645;32;20831;-74
2023/01/10 03:10:29;;;;;;;1.12;0.52;;;6.90;99.90;;;;;;4397422;32;20564;-75
2023/01/10 03:12:57;;;;;;;0.85;0.62;;;6.90;99.90;;;;;;4385991;32;20224;-74
2023/01/10 03:15:28;;;;;;;0.50;0.50;;;6.90;99.90;;;;;;4382244;32;20074;-73
2023/01/10 03:17:58;;;;;;;0.35;0.32;;;6.90;99.90;;;;;;4395516;32;20061;-74
2023/01/10 03:20:24;;;;;;;0.30;0.30;;;6.90;99.90;;;;;;4401816;32;20828;-74
2023/01/10 03:22:51;;;;;;;0.80;0.50;;;6.90;99.90;;;;;;4393103;32;20073;-73
2023/01/10 03:25:22;;;;;;;0.65;0.65;;;6.90;99.90;;;;;;4395421;32;20111;-74
2023/01/10 03:27:56;;;;;;;0.60;0.60;;;6.90;99.90;;;;;;4402436;32;20070;-74
2023/01/10 03:30:30;;;;;;;0.40;0.40;;;6.90;99.90;;;;;;4408636;32;20133;-73
2023/01/10 03:32:58;;;;;;;1.80;0.98;;;6.90;99.90;;;;;;4411186;32;20106;-72
2023/01/10 03:35:35;;;;;;;0.98;0.85;;;6.90;99.90;;;;;;4410014;32;20559;-71
2023/01/10 03:38:09;;;;;;;0.40;0.40;;;6.90;99.90;;;;;;4411892;32;20093;-71
2023/01/10 03:40:42;;;;;;;0.40;0.40;;;6.90;99.90;;;;;;4403431;32;20129;-73
2023/01/10 03:44:49;;;;;;;0.50;0.50;;;6.90;99.90;;;;;;4396301;32;20065;-73
2023/01/10 03:46:09;;;;;;;0.50;0.50;;;6.90;99.90;;;;;;4387387;32;20086;-73
2023/01/10 03:48:40;;;;;;;0.40;0.40;;;6.90;99.90;;;;;;4409290;32;20062;-72
2023/01/10 03:51:07;;;;;;;2.62;1.40;;;6.90;99.90;;;;;;4409093;32;20086;-72
2023/01/10 03:53:35;;;;;;;4.40;1.10;;;6.90;99.90;;;;;;4399792;32;20534;-73
2023/01/10 03:56:01;;;;;;;0.30;0.30;;;6.90;99.90;;;;;;4408513;32;20069;-72
2023/01/10 03:58:28;;;;;;;1.55;0.45;;;6.90;99.90;;;;;;4408256;32;20093;-72
2023/01/10 04:00:53;;;;;;;0.30;0.30;;;6.90;99.90;;;;;;4408800;32;20093;-72
2023/01/10 04:03:19;;;;;;;0.45;0.45;;;7.00;99.90;;;;;;4406737;32;20416;-72
2023/01/10 04:05:44;;;;;;;0.68;0.68;;;7.00;99.90;;;;;;4408342;32;20148;-72
2023/01/10 04:08:10;;;;;;;0.70;0.70;;;6.90;99.90;;;;;;4411133;32;20069;-72
2023/01/10 04:10:36;;;;;;;0.40;0.40;;;6.90;99.90;;;;;;4402697;32;20465;-73
2023/01/10 04:13:02;;;;;;;0.37;0.37;;;6.90;99.90;;;;;;4398107;32;20603;-73
2023/01/10 04:15:28;;;;;;;0.80;0.70;;;6.80;99.90;;;;;;4392534;32;20129;-73
2023/01/10 04:17:55;;;;;;;0.43;0.43;;;6.80;99.90;;;;;;4402890;32;20062;-73
2023/01/10 04:20:20;;;;;;;0.43;0.43;;;6.80;99.90;;;;;;4409525;32;20062;-73
2023/01/10 04:22:48;;;;;;;0.73;0.70;;;6.80;99.90;;;;;;4401121;32;20074;-74
2023/01/10 04:25:14;;;;;;;0.35;0.35;;;6.80;99.90;;;;;;4402514;32;20070;-71
2023/01/10 04:27:40;;;;;;;0.60;0.60;;;6.80;99.90;;;;;;4411413;32;20069;-71
2023/01/10 04:30:06;;;;;;;0.40;0.40;;;6.80;99.90;;;;;;4409988;32;20420;-71
2023/01/10 04:32:32;;;;;;;0.30;0.30;;;6.80;99.90;;;;;;4406466;32;20070;-72
2023/01/10 04:34:57;;;;;;;0.75;0.60;;;6.70;99.90;;;;;;4409888;32;20124;-71
2023/01/10 04:37:23;;;;;;;0.30;0.30;;;6.70;99.90;;;;;;4408667;32;20145;-71
2023/01/10 04:39:48;;;;;;;3.85;0.95;;;6.70;99.90;;;;;;4405432;32;20080;-74
2023/01/10 04:42:15;;;;;;;1.17;0.65;;;6.70;99.90;;;;;;4392575;32;20147;-72
2023/01/10 04:44:42;;;;;;;0.77;0.77;;;6.70;99.90;;;;;;4393170;32;20257;-72
2023/01/10 04:47:07;;;;;;;1.77;1.05;;;6.70;99.90;;;;;;4400307;32;20085;-72
2023/01/10 04:49:33;;;;;;;2.20;1.10;;;6.70;99.90;;;;;;4407752;32;20074;-71
2023/01/10 04:51:58;;;;;;;7.12;1.12;;;6.70;99.90;;;;;;4407188;32;20079;-72
2023/01/10 04:54:24;;;;;;;0.30;0.30;;;6.70;99.90;;;;;;4399649;32;20077;-72
2023/01/10 04:56:49;;;;;;;0.40;0.40;;;6.70;99.90;;;;;;4408440;32;20078;-72
2023/01/10 04:59:15;;;;;;;0.43;0.43;;;6.60;99.90;;;;;;4409104;32;20086;-72
2023/01/10 05:01:41;;;;;;;0.98;0.65;;;6.60;99.90;;;;;;4410995;32;20057;-71
2023/01/10 05:04:07;;;;;;;2.17;0.73;;;6.60;99.90;;;;;;4410357;32;20061;-72
2023/01/10 05:06:32;;;;;;;0.40;0.40;;;6.60;99.90;;;;;;4410323;32;20073;-71
2023/01/10 05:08:58;;;;;;;0.60;0.60;;;6.60;99.90;;;;;;4409621;32;20109;-72
2023/01/10 05:11:23;;;;;;;0.45;0.45;;;6.60;99.90;;;;;;4399599;32;20149;-72
2023/01/10 05:13:49;;;;;;;0.30;0.30;;;6.70;99.90;;;;;;4397888;32;20562;-72
2023/01/10 05:16:15;;;;;;;0.80;0.80;;;6.60;99.90;;;;;;4400578;32;20097;-72
2023/01/10 05:18:41;;;;;;;0.37;0.37;;;6.70;99.90;;;;;;4414229;32;20062;-71
2023/01/10 05:21:10;;;;;;;0.40;0.40;;;6.70;99.90;;;;;;4409920;32;20133;-71
2023/01/10 05:23:37;;;;;;;0.40;0.40;;;6.70;99.90;;;;;;4376406;32;20072;-72
2023/01/10 05:26:08;;;;;;;2.60;0.62;;;6.70;99.90;;;;;;4386943;32;20082;-72
2023/01/10 05:28:33;;;;;;;0.30;0.30;;;6.70;99.90;;;;;;4383518;32;20106;-73
2023/01/10 05:30:59;;;;;;;4.20;1.40;;;6.70;99.90;;;;;;4389479;32;20106;-72
2023/01/10 05:33:24;;;;;;;0.55;0.55;;;6.70;99.90;;;;;;4380932;32;20067;-72
2023/01/10 05:35:50;;;;;;;3.05;0.73;;;6.70;99.90;;;;;;4383683;32;20102;-72
2023/01/10 05:38:15;;;;;;;0.30;0.30;;;6.70;99.90;;;;;;4407882;32;20074;-71
2023/01/10 05:40:41;;;;;;;0.40;0.40;;;6.70;99.90;;;;;;4405294;32;20090;-72
2023/01/10 05:43:06;;;;;;;0.35;0.35;;;6.70;99.90;;;;;;4399857;32;20298;-72
2023/01/10 05:45:32;;;;;;;16.65;0.93;;;6.80;99.90;;;;;;4397487;32;20081;-72
2023/01/10 05:47:57;;;;;;;0.45;0.45;;;6.70;99.90;;;;;;4409754;32;20091;-72
2023/01/10 05:50:23;;;;;;;0.40;0.40;;;6.80;99.90;;;;;;4410166;32;20093;-71
2023/01/10 05:52:48;;;;;;;0.75;0.75;;;6.70;99.90;;;;;;4389155;32;20066;-72
2023/01/10 05:55:14;;;;;;;1.17;1.05;;;6.80;99.90;;;;;;4382278;32;20693;-72
2023/01/10 05:57:39;;;;;;;0.77;0.77;;;6.80;99.90;;;;;;4400228;32;20112;-72
2023/01/10 06:00:05;;;;;;;0.95;0.88;;;6.70;99.90;;;;;;4409032;32;20095;-72
2023/01/10 06:02:31;;;;;;;0.73;0.73;;;6.80;99.90;;;;;;4398728;32;20085;-72
2023/01/10 06:04:57;;;;;;;10.77;0.90;;;6.70;99.90;;;;;;4382408;32;20126;-72
2023/01/10 06:07:22;;;;;;;0.30;0.30;;;6.70;99.90;;;;;;4378347;32;20489;-72
2023/01/10 06:09:50;;;;;;;2.12;1.25;;;6.70;99.90;;;;;;4367663;32;20117;-72
2023/01/10 06:12:17;;;;;;;6.30;2.20;;;6.80;99.90;;;;;;4365460;32;20070;-72
2023/01/10 06:14:43;;;;;;;1.80;0.88;;;6.80;99.90;;;;;;4352775;32;20359;-73
2023/01/10 06:17:09;;;;;;;1.55;0.80;;;6.70;99.90;;;;;;4358048;32;20340;-73
2023/01/10 06:19:34;;;;;;;2.97;0.88;;;6.70;99.90;;;;;;4320934;32;20603;-73
2023/01/10 06:22:00;;;;;;;0.65;0.65;;;6.70;99.90;;;;;;4337421;32;20285;-73
2023/01/10 06:24:25;;;;;;;0.70;0.70;;;6.80;99.90;;;;;;4307130;32;20347;-72
2023/01/10 06:26:51;;;;;;;0.50;0.50;;;6.80;99.90;;;;;;4331854;32;20109;-73
2023/01/10 06:29:17;;;;;;;2.30;0.77;;;6.80;99.90;;;;;;4322158;32;20438;-72
2023/01/10 06:31:43;;;;;;;0.40;0.40;;;6.80;99.90;;;;;;4302789;32;20277;-73
2023/01/10 06:34:09;;;;;;;9.20;1.17;;;6.80;99.90;;;;;;4347871;32;20194;-73
2023/01/10 06:36:35;;;;;;;7.15;1.90;;;6.80;99.90;;;;;;4360160;32;20103;-73
2023/01/10 06:39:00;;;;;;;0.30;0.30;;;6.70;99.90;;;;;;4367205;32;20315;-73
2023/01/10 06:41:27;;;;;;;0.40;0.40;;;6.70;99.90;;;;;;4363274;32;20312;-73
2023/01/10 06:43:53;;;;;;;3.53;2.15;;;6.60;99.90;;;;;;4370660;32;20088;-73
2023/01/10 06:46:20;;;;;;;4.18;1.75;;;6.70;99.90;;;;;;4385477;32;20180;-73
2023/01/10 06:48:46;;;;;;;0.85;0.85;;;6.80;99.90;;;;;;4412705;26;20233;-65
2023/01/10 06:51:14;;;;;;;0.40;0.40;;;6.70;99.90;;;;;;4386636;32;20146;-63
2023/01/10 06:53:40;;;;;;;2.47;1.12;;;6.80;99.90;;;;;;4388678;32;20104;-65
2023/01/10 06:56:06;;;;;;;2.33;0.98;;;6.80;99.90;;;;;;4396666;32;20967;-64
2023/01/10 06:58:32;;;;;;;0.77;0.77;;;6.80;99.90;;;;;;4374625;32;20839;-66
2023/01/10 07:00:57;;;;;;;0.45;0.45;;;6.80;99.90;;;;;;4357045;32;21885;-65
2023/01/10 07:03:23;;;;;;;4.68;1.30;;;6.80;99.90;;;;;;4354274;32;20219;-65
2023/01/10 07:05:49;;;;;;;0.40;0.40;;;6.90;99.90;;;;;;4363320;32;20105;-65
2023/01/10 07:08:15;;;;;;;8.55;1.33;;;6.90;99.90;;;;;;4371843;32;20088;-67
2023/01/10 07:10:41;;;;;;;0.32;0.32;;;6.90;99.90;;;;;;4370633;32;21588;-63
2023/01/10 07:13:06;;;;;;;0.70;0.70;;;6.90;99.90;;;;;;4370644;32;20330;-64
2023/01/10 07:15:32;;;;;;;0.40;0.40;;;6.90;99.90;;;;;;4385822;32;20668;-65
2023/01/10 07:17:58;;;;;;;0.85;0.60;;;6.80;99.90;;;;;;4363948;32;20105;-63
2023/01/10 07:20:24;;;;;;;1.42;0.93;;;6.80;99.90;;;;;;4368259;32;20533;-65
2023/01/10 07:22:54;;;;;;;1.80;1.23;;;6.80;99.90;;;;;;4379773;32;20097;-64
2023/01/10 07:25:20;;;;;;;0.40;0.40;;;6.80;99.90;;;;;;4377819;32;20201;-65
2023/01/10 07:27:45;;;;;;;0.65;0.50;;;6.80;99.90;;;;;;4382121;32;20120;-65
2023/01/10 07:30:12;;;;;;;4.37;0.75;;;6.70;99.90;;;;;;4364338;32;20186;-67
2023/01/10 07:32:38;;;;;;;0.37;0.37;;;6.70;99.90;;;;;;4369184;32;89432;-65
2023/01/10 07:35:04;;;;;;;2.65;0.90;;;6.70;99.90;;;;;;4366032;32;20211;-64
2023/01/10 07:37:29;;;;;;;0.40;0.40;;;6.70;99.90;;;;;;4376395;32;20074;-65
2023/01/10 07:39:55;;;;;;;1.35;1.25;;;6.70;99.90;;;;;;4379286;32;21703;-65
2023/01/10 07:42:20;;;;;;;1.15;0.77;;;6.70;99.90;;;;;;4383032;32;20077;-65
2023/01/10 07:44:46;;;;;;;0.60;0.60;;;6.60;99.90;;;;;;4380846;32;20089;-65
2023/01/10 07:47:11;;;;;;;0.40;0.40;;;6.60;99.90;;;;;;4386640;32;20109;-65
2023/01/10 07:49:37;;;;;;;0.47;0.47;;;6.60;99.90;;;;;;4369062;32;21273;-64
2023/01/10 07:52:03;;;;;;;0.40;0.40;;;6.50;99.90;;;;;;4378638;32;20469;-64
2023/01/10 07:54:29;;;;;;;0.60;0.60;;;6.60;99.90;;;;;;4371767;32;20097;-65
2023/01/10 07:56:54;;;;;;;2.03;1.50;;;6.60;99.90;;;;;;4384370;32;20118;-65
2023/01/10 07:59:20;;;;;;;1.25;0.90;;;6.60;99.90;;;;;;4369887;32;20476;-64
2023/01/10 08:01:47;;;;;;;2.78;0.93;;;6.60;99.90;;;;;;4366885;32;20432;-64
2023/01/10 08:04:12;;;;;;;5.00;0.60;;;6.60;99.90;;;;;;4360220;32;20245;-65
2023/01/10 08:06:38;;;;;;;2.45;1.58;;;6.60;99.90;;;;;;4367201;32;20812;-65
2023/01/10 08:09:04;;;;;;;2.05;1.17;;;6.60;99.90;;;;;;4375095;32;20156;-65
2023/01/10 08:11:30;;;;;;;2.22;1.02;;;6.60;99.90;;;;;;4366645;32;21136;-66
2023/01/10 08:13:55;;;;;;;0.55;0.55;;;6.70;99.90;;;;;;4359284;32;22068;-65
2023/01/10 08:16:21;;;;;;;5.40;0.70;;;6.70;99.90;;;;;;4368285;32;20258;-64
2023/01/10 08:18:47;;;;;;;0.37;0.37;;;6.70;99.90;;;;;;4363293;32;20735;-64
2023/01/10 08:21:12;;;;;;;0.70;0.70;;;6.80;99.90;;;;;;4373166;32;20110;-66
2023/01/10 08:23:38;;;;;;;25.37;1.58;;;6.80;99.90;;;;;;4376827;32;20750;-64
2023/01/10 08:26:04;;;;;;;10.43;2.05;;;6.80;99.90;;;;;;4370320;32;20099;-65
2023/01/10 08:28:30;;;;;;;2.85;0.60;;;6.80;99.90;;;;;;4361483;32;20840;-65
2023/01/10 08:30:56;;;;;;;0.62;0.62;;;6.70;99.90;;;;;;4359580;32;20206;-65
2023/01/10 08:33:23;;;;;;;0.90;0.77;;;6.80;99.90;;;;;;4362083;32;20625;-65
2023/01/10 08:35:50;;;;;;;0.40;0.40;;;6.80;99.90;;;;;;4355655;32;20085;-65
2023/01/10 08:38:16;;;;;;;0.60;0.60;;;6.80;99.90;;;;;;4380242;32;20183;-65
2023/01/10 08:40:41;;;;;;;0.45;0.45;;;6.80;99.90;;;;;;4378385;32;20085;-65
2023/01/10 08:43:09;;;;;;;1.40;1.30;;;6.80;99.90;;;;;;4389521;32;20633;-64
2023/01/10 08:45:36;;;;;;;6.45;1.25;;;6.90;99.90;;;;;;4387893;32;20110;-65
2023/01/10 08:48:03;;;;;;;0.93;0.93;;;6.80;99.90;;;;;;4366677;32;21041;-64
2023/01/10 08:50:29;;;;;;;1.15;0.55;;;6.90;99.90;;;;;;4333350;32;20093;-66
2023/01/10 08:52:58;;;;;;;1.10;0.65;;;6.90;99.90;;;;;;4351034;32;20840;-66
2023/01/10 08:55:25;;;;;;;18.08;0.95;;;6.90;99.90;;;;;;4368408;32;20130;-67
2023/01/10 08:57:50;;;;;;;0.60;0.60;;;6.90;99.90;;;;;;4371177;32;20668;-67
2023/01/10 09:00:16;;;;;;;0.40;0.40;;;6.90;99.90;;;;;;4369523;32;20467;-67
2023/01/10 09:02:42;;;;;;;2.30;0.68;;;6.90;99.90;;;;;;4367440;32;20670;-67
2023/01/10 09:05:09;;;;;;;2.65;1.20;;;7.00;99.90;;;;;;4367628;32;20252;-68
2023/01/10 09:07:34;;;;;;;0.50;0.50;;;7.00;99.90;;;;;;4370637;32;20856;-67
2023/01/10 09:10:00;;;;;;;1.33;0.55;;;7.10;99.90;;;;;;4381433;32;20082;-67
2023/01/10 09:13:00;;;;;;;1.10;0.68;;;7.20;99.90;;;;;;4374425;32;20102;-68
2023/01/10 09:15:11;;;;;;;0.37;0.37;;;7.20;99.90;;;;;;4369056;32;20189;-67
2023/01/10 09:17:36;;;;;;;0.43;0.43;;;7.20;99.90;;;;;;4376847;32;20107;-66
2023/01/10 09:20:05;;;;;;;1.20;0.88;;;7.20;99.90;;;;;;4371695;32;20078;-67
2023/01/10 09:22:32;;;;;;;0.73;0.73;;;7.20;99.90;;;;;;4375161;32;20093;-66
2023/01/10 09:24:58;;;;;;;0.30;0.30;;;7.20;99.90;;;;;;4382491;32;20081;-66
2023/01/10 09:27:23;;;;;;;2.28;1.87;;;7.10;99.90;;;;;;4374672;32;20575;-67
2023/01/10 09:29:49;;;;;;;0.43;0.43;;;7.20;99.90;;;;;;4375356;32;20337;-65
2023/01/10 09:32:15;;;;;;;0.30;0.30;;;7.20;99.90;;;;;;4376587;32;20953;-65
2023/01/10 09:34:41;;;;;;;2.37;1.12;;;7.20;99.90;;;;;;4365452;32;20228;-64
2023/01/10 09:37:06;;;;;;;0.43;0.43;;;7.10;99.90;;;;;;4372413;32;20101;-66
2023/01/10 09:39:32;;;;;;;0.47;0.47;;;7.10;99.90;;;;;;4378216;32;20829;-64
2023/01/10 09:42:07;;;;;;;6.00;1.42;;;7.10;99.90;;;;;;4376016;32;20093;-64
2023/01/10 09:44:41;;;;;;;0.98;0.88;;;7.10;99.90;;;;;;4383896;32;20405;-65
2023/01/10 09:47:47;;;;;;;0.50;0.50;;;7.20;99.90;;;;;;4381101;32;20088;-65
2023/01/10 09:50:52;;;;;;;0.45;0.45;;;7.20;99.90;;;;;;4344050;32;20651;-65
2023/01/10 09:53:22;;;;;;;25.20;1.35;;;7.20;99.90;;;;;;4368148;32;20093;-65
2023/01/10 09:55:52;;;;;;;0.70;0.70;;;7.20;99.90;;;;;;4393906;32;20137;-65
2023/01/10 09:58:21;;;;;;;0.68;0.68;;;7.20;99.90;;;;;;4389031;32;20308;-65
2023/01/10 10:00:57;;;;;;;0.40;0.40;;;7.20;99.90;;;;;;4394329;32;20085;-65
2023/01/10 10:03:34;;;;;;;1.98;0.75;;;7.30;99.90;;;;;;4385216;32;20410;-64
2023/01/10 10:06:01;;;;;;;0.90;0.90;;;7.30;99.90;;;;;;4379347;32;20085;-65
2023/01/10 10:08:27;;;;;;;0.45;0.45;;;7.30;99.90;;;;;;4374832;32;20085;-65
2023/01/10 10:11:26;;;;;;;0.30;0.30;;;7.40;99.90;;;;;;4378875;32;20336;-65
2023/01/10 10:14:05;;;;;;;0.30;0.30;;;7.30;99.90;;;;;;4374278;32;20148;-65
2023/01/10 10:16:52;;;;;;;7.15;0.60;;;7.50;99.90;;;;;;4381338;32;20065;-64
2023/01/10 10:19:46;;;;;;;0.50;0.50;;;7.50;99.90;;;;;;4361273;32;21829;-65
2023/01/10 10:22:21;;;;;;;4.12;0.95;;;7.60;99.90;;;;;;4338099;32;20395;-65
2023/01/10 10:25:13;;;;;;;1.80;0.75;;;7.70;99.90;;;;;;4386982;32;20302;-64
2023/01/10 10:27:52;;;;;;;4.10;0.50;;;7.80;99.90;;;;;;4377183;32;20065;-65
2023/01/10 10:30:41;;;;;;;0.77;0.65;;;7.80;99.90;;;;;;4364001;32;20972;-63
2023/01/10 10:36:13;;;;;;;0.32;0.32;;;7.70;99.90;;;;;;4338379;32;20099;-64
2023/01/10 10:38:44;;;;;;;0.50;0.50;;;7.70;99.90;;;;;;4338037;32;20577;-64
2023/01/10 10:41:35;;;;;;;0.77;0.75;;;7.60;99.90;;;;;;4368795;27;20201;-74
2023/01/10 10:44:05;;;;;;;;;;;7.60;99.90;;;;;;4339698;32;22783;-73
2023/01/10 10:46:31;;;;;;;2.10;1.58;;;7.60;99.90;;;;;;4334193;32;19977;-73
2023/01/10 10:49:00;;;;;;;0.65;0.65;;;7.70;99.90;;;;;;4328135;32;20102;-73
2023/01/10 10:51:44;;;;;;;1.45;0.65;;;7.80;99.90;;;;;;4318965;32;21097;-72
2023/01/10 10:54:12;;;;;;;1.55;0.80;;;7.90;99.90;;;;;;4324601;32;20105;-72
2023/01/10 10:56:39;;;;;;;9.32;1.77;;;8.00;99.90;;;;;;4334218;32;20343;-73
2023/01/10 10:59:05;;;;;;;0.40;0.40;;;8.00;99.90;;;;;;4323957;32;20122;-73
2023/01/10 11:01:31;;;;;;;26.95;0.95;;;7.90;99.90;;;;;;4328583;32;20179;-73
2023/01/10 11:04:00;;;;;;;3.92;1.30;;;7.90;99.90;;;;;;4319990;32;20217;-73
2023/01/10 11:06:29;;;;;;;6.12;1.87;;;7.90;99.90;;;;;;4337176;32;20426;-72
2023/01/10 11:08:59;;;;;;;0.40;0.40;;;7.90;99.90;;;;;;4345303;32;20430;-73
2023/01/10 11:11:32;;;;;;;1.52;0.80;;;7.90;99.90;;;;;;4337959;32;20583;-74
2023/01/10 11:14:00;;;;;;;0.30;0.30;;;7.90;99.90;;;;;;4337731;32;20303;-72
2023/01/10 11:16:30;;;;;;;0.40;0.40;;;8.00;99.90;;;;;;4347526;32;20130;-74
2023/01/10 11:19:16;;;;;;;1.45;0.52;;;8.00;99.90;;;;;;4323236;32;20227;-72
2023/01/10 11:21:48;;;;;;;0.75;0.60;;;8.10;99.90;;;;;;4337258;32;20121;-75
2023/01/10 11:24:21;;;;;;;1.10;0.82;;;8.30;99.90;;;;;;4344559;32;20143;-72
2023/01/10 11:26:47;;;;;;;3.20;0.77;;;8.40;99.90;;;;;;4359330;32;20668;-72
2023/01/10 11:29:17;;;;;;;0.60;0.60;;;8.60;99.90;;;;;;4358248;32;20166;-74
2023/01/10 11:31:44;;;;;;;1.33;1.25;;;8.90;99.90;;;;;;4356644;32;20203;-72
2023/01/10 11:34:22;;;;;;;0.50;0.50;;;9.00;99.90;;;;;;4341209;32;20106;-73
2023/01/10 11:37:16;;;;;;;1.87;1.20;;;9.10;99.90;;;;;;4354729;32;20539;-73
2023/01/10 11:39:42;;;;;;;0.68;0.68;;;9.10;99.90;;;;;;4367990;32;20087;-73
2023/01/10 11:42:24;;;;;;;0.52;0.52;;;8.90;99.90;;;;;;4376731;32;20098;-74
2023/01/10 11:44:50;;;;;;;0.40;0.40;;;8.90;99.90;;;;;;4368066;32;20117;-74
2023/01/10 11:47:19;;;;;;;1.20;1.15;;;9.00;99.90;;;;;;4362728;32;20110;-73
2023/01/10 11:49:46;;;;;;;1.05;0.95;;;8.80;99.90;;;;;;4357632;32;20259;-74
2023/01/10 11:52:31;;;;;;;1.73;0.73;;;8.70;99.90;;;;;;4354799;32;20292;-74
2023/01/10 11:54:59;;;;;;;0.52;0.52;;;8.70;99.90;;;;;;4355750;32;20302;-75
2023/01/10 11:57:27;;;;;;;0.45;0.45;;;8.70;99.90;;;;;;4346818;32;20102;-74
2023/01/10 11:59:57;;;;;;;6.82;0.82;;;8.70;99.90;;;;;;4354736;32;20712;-74
2023/01/10 12:02:29;;;;;;;0.50;0.50;;;8.70;99.90;;;;;;4358768;32;20241;-74
2023/01/10 12:04:58;;;;;;;0.82;0.80;;;8.60;99.90;;;;;;4357680;32;20183;-74
2023/01/10 12:07:23;;;;;;;0.32;0.32;;;8.60;99.90;;;;;;4370144;32;23721;-74
2023/01/10 12:10:05;;;;;;;0.55;0.55;;;8.60;99.90;;;;;;4365859;32;21769;-74
2023/01/10 12:12:33;;;;;;;21.20;0.70;;;8.70;99.90;;;;;;4366703;32;20216;-74
2023/01/10 12:15:21;;;;;;;8.93;0.77;;;8.80;99.90;;;;;;4372268;32;20085;-75
2023/01/10 12:17:47;;;;;;;1.62;1.30;;;9.30;99.90;;;;;;4366610;32;20105;-75
2023/01/10 12:20:14;;;;;;;0.43;0.43;;;9.90;99.90;;;;;;4356335;32;20156;-76
2023/01/10 12:22:42;;;;;;;0.60;0.60;;;10.20;99.90;;;;;;4355766;32;20274;-75
2023/01/10 12:25:17;;;;;;;0.60;0.60;;;10.40;99.90;;;;;;4367201;32;20244;-75
2023/01/10 12:27:48;;;;;;;1.20;0.55;;;10.40;99.90;;;;;;4371250;32;20110;-75
2023/01/10 12:30:34;;;;;;;;;;;10.70;99.90;;;;;;4349470;32;20381;-73
2023/01/10 12:33:03;;;;;;;3.72;0.75;;;10.90;99.90;;;;;;4366065;27;19984;-63
2023/01/10 12:35:39;;;;;;;0.40;0.40;;;11.10;99.90;;;;;;4329917;32;21024;-64
2023/01/10 12:39:01;;;;;;;0.50;0.50;;;11.40;99.90;;;;;;4346576;32;20991;-64
2023/01/10 12:41:09;;;;;;;0.40;0.40;;;11.90;99.90;;;;;;4359174;32;21352;-64
2023/01/10 12:44:11;;;;;;;0.40;0.40;;;11.60;99.90;;;;;;4355334;32;21396;-65
2023/01/10 12:46:31;;;;;;;2.60;0.77;;;11.40;99.90;;;;;;4340165;32;20883;-65
2023/01/10 12:49:04;;;;;;;5.40;0.95;;;10.70;99.90;;;;;;4349172;32;20125;-65
2023/01/10 12:51:32;;;;;;;1.05;0.95;;;10.10;99.90;;;;;;4360700;32;20089;-68
2023/01/10 12:54:03;;;;;;;0.50;0.50;;;9.80;99.90;;;;;;4356614;32;20137;-66
2023/01/10 12:56:29;;;;;;;0.40;0.40;;;9.60;99.90;;;;;;4358173;32;20156;-65
2023/01/10 12:59:02;;;;;;;0.32;0.32;;;9.50;99.90;;;;;;4349448;32;20121;-66
2023/01/10 13:01:33;;;;;;;0.98;0.70;;;9.40;99.90;;;;;;4340521;32;20829;-66
2023/01/10 13:04:03;;;;;;;3.25;1.15;;;9.40;99.90;;;;;;4339503;32;21095;-65
2023/01/10 13:06:32;;;;;;;0.90;0.75;;;9.30;99.90;;;;;;4342392;32;20078;-66
2023/01/10 13:09:04;;;;;;;0.40;0.40;;;9.30;99.90;;;;;;4339798;32;22202;-66
2023/01/10 13:11:36;;;;;;;0.62;0.62;;;9.30;99.90;;;;;;4344324;32;22157;-66
2023/01/10 13:14:03;;;;;;;15.48;0.77;;;9.30;99.90;;;;;;4345328;32;20558;-65